sensor_id;sensor_type;location;lat;lon;timestamp;P1;durP1;ratioP1;P2;durP2;ratioP2
73938;SDS011;62291;47.554;8.504;2023-12-07T00:01:00;24.92;;;16.55;;
73938;SDS011;62291;47.554;8.504;2023-12-07T00:03:26;26.08;;;17.08;;
73938;SDS011;62291;47.554;8.504;2023-12-07T00:05:51;27.58;;;16.60;;
73938;SDS011;62291;47.554;8.504;2023-12-07T00:08:17;23.80;;;15.77;;
73938;SDS011;62291;47.554;8.504;2023-12-07T00:10:42;29.30;;;16.83;;
73938;SDS011;62291;47.554;8.504;2023-12-07T00:13:08;32.22;;;17.25;;
73938;SDS011;62291;47.554;8.504;2023-12-07T00:15:34;26.70;;;17.42;;
73938;SDS011;62291;47.554;8.504;2023-12-07T00:17:59;31.73;;;18.58;;
73938;SDS011;62291;47.554;8.504;2023-12-07T00:20:25;29.48;;;18.20;;
73938;SDS011;62291;47.554;8.504;2023-12-07T00:22:51;27.38;;;17.02;;
73938;SDS011;62291;47.554;8.504;2023-12-07T00:25:16;33.05;;;19.38;;
73938;SDS011;62291;47.554;8.504;2023-12-07T00:27:42;34.28;;;18.77;;
73938;SDS011;62291;47.554;8.504;2023-12-07T00:30:08;28.70;;;17.73;;
73938;SDS011;62291;47.554;8.504;2023-12-07T00:32:34;27.55;;;17.05;;
73938;SDS011;62291;47.554;8.504;2023-12-07T00:35:00;160.13;;;25.33;;
73938;SDS011;62291;47.554;8.504;2023-12-07T00:37:25;22.33;;;15.88;;
73938;SDS011;62291;47.554;8.504;2023-12-07T00:39:52;33.83;;;19.33;;
73938;SDS011;62291;47.554;8.504;2023-12-07T00:42:17;48.50;;;20.38;;
73938;SDS011;62291;47.554;8.504;2023-12-07T00:44:43;32.22;;;18.15;;
73938;SDS011;62291;47.554;8.504;2023-12-07T00:47:09;32.63;;;18.27;;
73938;SDS011;62291;47.554;8.504;2023-12-07T00:49:38;36.05;;;19.38;;
73938;SDS011;62291;47.554;8.504;2023-12-07T00:52:07;25.17;;;15.45;;
73938;SDS011;62291;47.554;8.504;2023-12-07T00:54:33;29.73;;;17.02;;
73938;SDS011;62291;47.554;8.504;2023-12-07T00:56:59;32.03;;;18.67;;
73938;SDS011;62291;47.554;8.504;2023-12-07T00:59:25;21.83;;;15.52;;
73938;SDS011;62291;47.554;8.504;2023-12-07T01:01:50;50.05;;;24.70;;
73938;SDS011;62291;47.554;8.504;2023-12-07T01:04:16;42.20;;;21.80;;
73938;SDS011;62291;47.554;8.504;2023-12-07T01:06:42;27.92;;;17.40;;
73938;SDS011;62291;47.554;8.504;2023-12-07T01:09:08;27.08;;;17.52;;
73938;SDS011;62291;47.554;8.504;2023-12-07T01:11:38;30.30;;;17.13;;
73938;SDS011;62291;47.554;8.504;2023-12-07T01:14:07;41.25;;;20.38;;
73938;SDS011;62291;47.554;8.504;2023-12-07T01:16:32;31.02;;;18.38;;
73938;SDS011;62291;47.554;8.504;2023-12-07T01:18:58;31.50;;;18.80;;
73938;SDS011;62291;47.554;8.504;2023-12-07T01:21:24;28.23;;;18.05;;
73938;SDS011;62291;47.554;8.504;2023-12-07T01:23:49;66.88;;;23.50;;
73938;SDS011;62291;47.554;8.504;2023-12-07T01:26:15;29.00;;;17.40;;
73938;SDS011;62291;47.554;8.504;2023-12-07T01:28:40;30.60;;;18.25;;
73938;SDS011;62291;47.554;8.504;2023-12-07T01:31:06;35.88;;;19.23;;
73938;SDS011;62291;47.554;8.504;2023-12-07T01:33:32;56.10;;;23.45;;
73938;SDS011;62291;47.554;8.504;2023-12-07T01:35:57;35.42;;;18.25;;
73938;SDS011;62291;47.554;8.504;2023-12-07T01:38:23;30.75;;;17.90;;
73938;SDS011;62291;47.554;8.504;2023-12-07T01:40:49;64.20;;;21.15;;
73938;SDS011;62291;47.554;8.504;2023-12-07T01:43:14;161.13;;;24.88;;
73938;SDS011;62291;47.554;8.504;2023-12-07T01:45:40;289.75;;;32.88;;
73938;SDS011;62291;47.554;8.504;2023-12-07T01:48:06;459.05;;;35.85;;
73938;SDS011;62291;47.554;8.504;2023-12-07T01:50:32;579.75;;;44.55;;
73938;SDS011;62291;47.554;8.504;2023-12-07T01:53:02;325.33;;;29.02;;
73938;SDS011;62291;47.554;8.504;2023-12-07T01:55:28;171.65;;;26.15;;
73938;SDS011;62291;47.554;8.504;2023-12-07T01:57:56;149.30;;;26.05;;
73938;SDS011;62291;47.554;8.504;2023-12-07T02:00:22;99.22;;;23.75;;
73938;SDS011;62291;47.554;8.504;2023-12-07T02:02:47;398.08;;;42.10;;
73938;SDS011;62291;47.554;8.504;2023-12-07T02:05:14;64.30;;;22.65;;
73938;SDS011;62291;47.554;8.504;2023-12-07T02:07:40;106.32;;;25.92;;
73938;SDS011;62291;47.554;8.504;2023-12-07T02:10:07;77.57;;;26.77;;
73938;SDS011;62291;47.554;8.504;2023-12-07T02:12:33;112.68;;;26.00;;
73938;SDS011;62291;47.554;8.504;2023-12-07T02:15:00;97.18;;;24.90;;
73938;SDS011;62291;47.554;8.504;2023-12-07T02:23:19;59.97;;;27.90;;
73938;SDS011;62291;47.554;8.504;2023-12-07T02:25:53;56.33;;;26.52;;
73938;SDS011;62291;47.554;8.504;2023-12-07T02:28:56;50.28;;;25.15;;
73938;SDS011;62291;47.554;8.504;2023-12-07T02:31:22;56.38;;;25.98;;
73938;SDS011;62291;47.554;8.504;2023-12-07T02:33:48;56.13;;;26.50;;
73938;SDS011;62291;47.554;8.504;2023-12-07T02:36:15;592.67;;;49.47;;
73938;SDS011;62291;47.554;8.504;2023-12-07T02:38:44;707.75;;;51.17;;
73938;SDS011;62291;47.554;8.504;2023-12-07T02:41:12;296.55;;;32.25;;
73938;SDS011;62291;47.554;8.504;2023-12-07T02:43:38;683.95;;;49.28;;
73938;SDS011;62291;47.554;8.504;2023-12-07T02:46:04;616.80;;;50.40;;
73938;SDS011;62291;47.554;8.504;2023-12-07T02:48:30;539.65;;;47.63;;
73938;SDS011;62291;47.554;8.504;2023-12-07T02:50:55;553.15;;;48.45;;
73938;SDS011;62291;47.554;8.504;2023-12-07T02:53:21;765.55;;;57.45;;
73938;SDS011;62291;47.554;8.504;2023-12-07T02:55:47;1154.97;;;84.43;;
73938;SDS011;62291;47.554;8.504;2023-12-07T02:58:12;923.53;;;75.57;;
73938;SDS011;62291;47.554;8.504;2023-12-07T03:00:38;749.47;;;67.70;;
73938;SDS011;62291;47.554;8.504;2023-12-07T03:03:04;681.75;;;61.20;;
73938;SDS011;62291;47.554;8.504;2023-12-07T03:05:29;368.15;;;42.28;;
73938;SDS011;62291;47.554;8.504;2023-12-07T03:07:55;744.55;;;65.10;;
73938;SDS011;62291;47.554;8.504;2023-12-07T03:10:21;458.83;;;50.95;;
73938;SDS011;62291;47.554;8.504;2023-12-07T03:12:46;658.97;;;61.63;;
73938;SDS011;62291;47.554;8.504;2023-12-07T03:15:12;391.17;;;41.03;;
73938;SDS011;62291;47.554;8.504;2023-12-07T03:17:38;307.52;;;35.03;;
73938;SDS011;62291;47.554;8.504;2023-12-07T03:20:04;556.42;;;49.72;;
73938;SDS011;62291;47.554;8.504;2023-12-07T03:22:30;812.40;;;69.63;;
73938;SDS011;62291;47.554;8.504;2023-12-07T03:24:56;563.88;;;54.92;;
73938;SDS011;62291;47.554;8.504;2023-12-07T03:27:21;603.17;;;54.50;;
73938;SDS011;62291;47.554;8.504;2023-12-07T03:29:47;303.35;;;39.35;;
73938;SDS011;62291;47.554;8.504;2023-12-07T03:32:13;284.23;;;37.00;;
73938;SDS011;62291;47.554;8.504;2023-12-07T03:34:38;219.88;;;33.00;;
73938;SDS011;62291;47.554;8.504;2023-12-07T03:37:04;481.50;;;50.47;;
73938;SDS011;62291;47.554;8.504;2023-12-07T03:39:30;681.63;;;56.88;;
73938;SDS011;62291;47.554;8.504;2023-12-07T03:41:57;699.42;;;59.28;;
73938;SDS011;62291;47.554;8.504;2023-12-07T03:44:23;1137.22;;;68.97;;
73938;SDS011;62291;47.554;8.504;2023-12-07T03:46:48;980.80;;;68.60;;
73938;SDS011;62291;47.554;8.504;2023-12-07T03:49:14;648.85;;;51.20;;
73938;SDS011;62291;47.554;8.504;2023-12-07T03:51:40;643.85;;;54.60;;
73938;SDS011;62291;47.554;8.504;2023-12-07T03:54:05;1151.55;;;81.72;;
73938;SDS011;62291;47.554;8.504;2023-12-07T03:56:32;786.53;;;63.03;;
73938;SDS011;62291;47.554;8.504;2023-12-07T03:58:58;399.52;;;42.97;;
73938;SDS011;62291;47.554;8.504;2023-12-07T04:01:27;481.30;;;44.78;;
73938;SDS011;62291;47.554;8.504;2023-12-07T04:03:54;990.97;;;74.03;;
73938;SDS011;62291;47.554;8.504;2023-12-07T04:06:21;792.58;;;64.22;;
73938;SDS011;62291;47.554;8.504;2023-12-07T04:08:47;494.77;;;49.53;;
73938;SDS011;62291;47.554;8.504;2023-12-07T04:11:14;369.73;;;45.42;;
73938;SDS011;62291;47.554;8.504;2023-12-07T04:13:40;475.35;;;44.22;;
73938;SDS011;62291;47.554;8.504;2023-12-07T04:16:06;546.72;;;51.55;;
73938;SDS011;62291;47.554;8.504;2023-12-07T04:18:32;544.33;;;53.05;;
73938;SDS011;62291;47.554;8.504;2023-12-07T04:20:58;524.30;;;49.97;;
73938;SDS011;62291;47.554;8.504;2023-12-07T04:23:24;498.52;;;49.33;;
73938;SDS011;62291;47.554;8.504;2023-12-07T04:25:50;379.38;;;42.17;;
73938;SDS011;62291;47.554;8.504;2023-12-07T04:28:16;753.17;;;67.05;;
73938;SDS011;62291;47.554;8.504;2023-12-07T04:30:42;674.85;;;61.13;;
73938;SDS011;62291;47.554;8.504;2023-12-07T04:33:07;741.60;;;63.35;;
73938;SDS011;62291;47.554;8.504;2023-12-07T04:35:33;1028.72;;;74.97;;
73938;SDS011;62291;47.554;8.504;2023-12-07T04:37:59;474.45;;;49.03;;
73938;SDS011;62291;47.554;8.504;2023-12-07T04:40:25;868.30;;;71.22;;
73938;SDS011;62291;47.554;8.504;2023-12-07T04:42:51;699.70;;;56.05;;
73938;SDS011;62291;47.554;8.504;2023-12-07T04:45:17;1214.50;;;80.75;;
73938;SDS011;62291;47.554;8.504;2023-12-07T04:47:43;668.30;;;57.35;;
73938;SDS011;62291;47.554;8.504;2023-12-07T04:50:08;523.65;;;48.45;;
73938;SDS011;62291;47.554;8.504;2023-12-07T04:52:35;504.38;;;39.55;;
73938;SDS011;62291;47.554;8.504;2023-12-07T04:55:00;960.97;;;62.60;;
73938;SDS011;62291;47.554;8.504;2023-12-07T04:57:26;1078.20;;;69.72;;
73938;SDS011;62291;47.554;8.504;2023-12-07T04:59:52;885.08;;;61.28;;
73938;SDS011;62291;47.554;8.504;2023-12-07T05:02:18;822.40;;;48.97;;
73938;SDS011;62291;47.554;8.504;2023-12-07T05:04:44;982.83;;;65.65;;
73938;SDS011;62291;47.554;8.504;2023-12-07T05:07:10;786.75;;;56.22;;
73938;SDS011;62291;47.554;8.504;2023-12-07T05:09:37;719.97;;;50.78;;
73938;SDS011;62291;47.554;8.504;2023-12-07T05:12:03;561.88;;;45.67;;
73938;SDS011;62291;47.554;8.504;2023-12-07T05:14:30;859.10;;;57.22;;
73938;SDS011;62291;47.554;8.504;2023-12-07T05:16:56;745.28;;;54.03;;
73938;SDS011;62291;47.554;8.504;2023-12-07T05:19:22;755.47;;;53.92;;
73938;SDS011;62291;47.554;8.504;2023-12-07T05:21:48;381.13;;;39.45;;
73938;SDS011;62291;47.554;8.504;2023-12-07T05:24:14;821.05;;;57.13;;
73938;SDS011;62291;47.554;8.504;2023-12-07T05:26:41;752.38;;;59.08;;
73938;SDS011;62291;47.554;8.504;2023-12-07T05:29:07;405.70;;;39.88;;
73938;SDS011;62291;47.554;8.504;2023-12-07T05:31:33;809.55;;;58.00;;
73938;SDS011;62291;47.554;8.504;2023-12-07T05:34:00;274.58;;;35.40;;
73938;SDS011;62291;47.554;8.504;2023-12-07T05:36:26;442.20;;;40.22;;
73938;SDS011;62291;47.554;8.504;2023-12-07T05:38:51;763.75;;;56.10;;
73938;SDS011;62291;47.554;8.504;2023-12-07T05:41:17;371.95;;;43.30;;
73938;SDS011;62291;47.554;8.504;2023-12-07T05:43:43;472.55;;;48.83;;
73938;SDS011;62291;47.554;8.504;2023-12-07T05:46:09;225.82;;;38.20;;
73938;SDS011;62291;47.554;8.504;2023-12-07T05:48:35;252.25;;;36.80;;
73938;SDS011;62291;47.554;8.504;2023-12-07T05:51:01;456.85;;;49.30;;
73938;SDS011;62291;47.554;8.504;2023-12-07T05:53:27;276.08;;;38.97;;
73938;SDS011;62291;47.554;8.504;2023-12-07T05:55:54;372.42;;;45.10;;
73938;SDS011;62291;47.554;8.504;2023-12-07T05:58:20;692.00;;;58.47;;
73938;SDS011;62291;47.554;8.504;2023-12-07T06:00:45;352.35;;;43.13;;
73938;SDS011;62291;47.554;8.504;2023-12-07T06:03:12;233.30;;;35.22;;
73938;SDS011;62291;47.554;8.504;2023-12-07T06:05:38;240.48;;;37.28;;
73938;SDS011;62291;47.554;8.504;2023-12-07T06:08:05;393.77;;;46.90;;
73938;SDS011;62291;47.554;8.504;2023-12-07T06:10:31;254.30;;;38.22;;
73938;SDS011;62291;47.554;8.504;2023-12-07T06:12:58;504.00;;;51.58;;
73938;SDS011;62291;47.554;8.504;2023-12-07T06:15:25;188.43;;;37.17;;
73938;SDS011;62291;47.554;8.504;2023-12-07T06:17:52;375.73;;;41.53;;
73938;SDS011;62291;47.554;8.504;2023-12-07T06:20:22;161.07;;;35.38;;
73938;SDS011;62291;47.554;8.504;2023-12-07T06:22:48;245.57;;;39.00;;
73938;SDS011;62291;47.554;8.504;2023-12-07T06:25:13;186.23;;;38.80;;
73938;SDS011;62291;47.554;8.504;2023-12-07T06:27:40;453.08;;;43.58;;
73938;SDS011;62291;47.554;8.504;2023-12-07T06:30:05;463.27;;;51.30;;
73938;SDS011;62291;47.554;8.504;2023-12-07T06:32:32;729.33;;;62.70;;
73938;SDS011;62291;47.554;8.504;2023-12-07T06:34:58;350.02;;;47.80;;
73938;SDS011;62291;47.554;8.504;2023-12-07T06:37:23;323.45;;;48.15;;
73938;SDS011;62291;47.554;8.504;2023-12-07T06:39:49;378.95;;;47.15;;
73938;SDS011;62291;47.554;8.504;2023-12-07T06:42:15;187.55;;;38.95;;
73938;SDS011;62291;47.554;8.504;2023-12-07T06:44:43;442.58;;;42.53;;
73938;SDS011;62291;47.554;8.504;2023-12-07T06:47:11;190.15;;;36.50;;
73938;SDS011;62291;47.554;8.504;2023-12-07T06:49:36;175.55;;;34.80;;
73938;SDS011;62291;47.554;8.504;2023-12-07T06:52:02;316.58;;;40.92;;
73938;SDS011;62291;47.554;8.504;2023-12-07T06:54:28;243.68;;;35.90;;
73938;SDS011;62291;47.554;8.504;2023-12-07T06:56:54;281.70;;;39.75;;
73938;SDS011;62291;47.554;8.504;2023-12-07T06:59:20;180.07;;;35.08;;
73938;SDS011;62291;47.554;8.504;2023-12-07T07:01:46;295.88;;;40.63;;
73938;SDS011;62291;47.554;8.504;2023-12-07T07:04:11;193.57;;;34.53;;
73938;SDS011;62291;47.554;8.504;2023-12-07T07:06:38;117.95;;;30.52;;
73938;SDS011;62291;47.554;8.504;2023-12-07T07:09:05;110.57;;;30.25;;
73938;SDS011;62291;47.554;8.504;2023-12-07T07:11:30;182.57;;;36.00;;
73938;SDS011;62291;47.554;8.504;2023-12-07T07:13:56;176.65;;;34.83;;
73938;SDS011;62291;47.554;8.504;2023-12-07T07:16:22;167.35;;;33.45;;
73938;SDS011;62291;47.554;8.504;2023-12-07T07:18:47;121.25;;;31.00;;
73938;SDS011;62291;47.554;8.504;2023-12-07T07:21:13;115.68;;;28.27;;
73938;SDS011;62291;47.554;8.504;2023-12-07T07:23:39;119.40;;;28.23;;
73938;SDS011;62291;47.554;8.504;2023-12-07T07:26:04;170.77;;;32.10;;
73938;SDS011;62291;47.554;8.504;2023-12-07T07:28:30;94.40;;;24.92;;
73938;SDS011;62291;47.554;8.504;2023-12-07T07:30:56;157.10;;;29.20;;
73938;SDS011;62291;47.554;8.504;2023-12-07T07:33:21;149.23;;;31.20;;
73938;SDS011;62291;47.554;8.504;2023-12-07T07:35:47;110.43;;;24.98;;
73938;SDS011;62291;47.554;8.504;2023-12-07T07:38:13;150.98;;;28.33;;
73938;SDS011;62291;47.554;8.504;2023-12-07T07:40:39;213.18;;;31.73;;
73938;SDS011;62291;47.554;8.504;2023-12-07T07:43:05;136.77;;;28.52;;
73938;SDS011;62291;47.554;8.504;2023-12-07T07:45:31;162.18;;;31.23;;
73938;SDS011;62291;47.554;8.504;2023-12-07T07:47:56;216.07;;;33.45;;
73938;SDS011;62291;47.554;8.504;2023-12-07T07:50:22;152.20;;;28.25;;
73938;SDS011;62291;47.554;8.504;2023-12-07T07:52:48;198.05;;;29.25;;
73938;SDS011;62291;47.554;8.504;2023-12-07T07:55:13;121.63;;;24.73;;
73938;SDS011;62291;47.554;8.504;2023-12-07T07:57:39;96.60;;;23.45;;
73938;SDS011;62291;47.554;8.504;2023-12-07T08:00:05;112.25;;;23.95;;
73938;SDS011;62291;47.554;8.504;2023-12-07T08:02:33;66.75;;;18.00;;
73938;SDS011;62291;47.554;8.504;2023-12-07T08:04:59;85.57;;;24.05;;
73938;SDS011;62291;47.554;8.504;2023-12-07T08:07:25;62.55;;;17.92;;
73938;SDS011;62291;47.554;8.504;2023-12-07T08:09:50;80.03;;;20.95;;
73938;SDS011;62291;47.554;8.504;2023-12-07T08:12:16;79.70;;;20.92;;
73938;SDS011;62291;47.554;8.504;2023-12-07T08:14:42;82.63;;;22.85;;
73938;SDS011;62291;47.554;8.504;2023-12-07T08:17:09;94.45;;;23.98;;
73938;SDS011;62291;47.554;8.504;2023-12-07T08:19:36;67.30;;;22.38;;
73938;SDS011;62291;47.554;8.504;2023-12-07T08:22:02;62.30;;;21.15;;
73938;SDS011;62291;47.554;8.504;2023-12-07T08:24:28;76.45;;;20.00;;
73938;SDS011;62291;47.554;8.504;2023-12-07T08:26:54;81.10;;;24.30;;
73938;SDS011;62291;47.554;8.504;2023-12-07T08:29:19;76.68;;;22.80;;
73938;SDS011;62291;47.554;8.504;2023-12-07T08:31:45;60.53;;;20.08;;
73938;SDS011;62291;47.554;8.504;2023-12-07T08:34:12;59.78;;;19.73;;
73938;SDS011;62291;47.554;8.504;2023-12-07T08:36:38;59.13;;;19.42;;
73938;SDS011;62291;47.554;8.504;2023-12-07T08:39:03;56.80;;;19.23;;
73938;SDS011;62291;47.554;8.504;2023-12-07T08:41:29;59.85;;;19.73;;
73938;SDS011;62291;47.554;8.504;2023-12-07T08:43:54;59.00;;;21.02;;
73938;SDS011;62291;47.554;8.504;2023-12-07T08:46:20;67.25;;;21.33;;
73938;SDS011;62291;47.554;8.504;2023-12-07T08:48:46;56.13;;;20.25;;
73938;SDS011;62291;47.554;8.504;2023-12-07T08:51:12;52.95;;;19.80;;
73938;SDS011;62291;47.554;8.504;2023-12-07T08:53:38;39.17;;;18.23;;
73938;SDS011;62291;47.554;8.504;2023-12-07T08:56:04;47.53;;;19.55;;
73938;SDS011;62291;47.554;8.504;2023-12-07T08:58:30;59.35;;;20.13;;
73938;SDS011;62291;47.554;8.504;2023-12-07T09:00:55;52.10;;;21.05;;
73938;SDS011;62291;47.554;8.504;2023-12-07T09:03:21;62.15;;;20.67;;
73938;SDS011;62291;47.554;8.504;2023-12-07T09:05:52;67.20;;;24.17;;
73938;SDS011;62291;47.554;8.504;2023-12-07T09:08:18;57.00;;;22.75;;
73938;SDS011;62291;47.554;8.504;2023-12-07T09:10:43;56.67;;;20.23;;
73938;SDS011;62291;47.554;8.504;2023-12-07T09:13:09;51.03;;;18.63;;
73938;SDS011;62291;47.554;8.504;2023-12-07T09:15:35;56.38;;;22.60;;
73938;SDS011;62291;47.554;8.504;2023-12-07T09:18:02;49.72;;;20.95;;
73938;SDS011;62291;47.554;8.504;2023-12-07T09:20:28;51.88;;;22.50;;
73938;SDS011;62291;47.554;8.504;2023-12-07T09:22:54;44.03;;;19.25;;
73938;SDS011;62291;47.554;8.504;2023-12-07T09:25:22;42.08;;;21.33;;
73938;SDS011;62291;47.554;8.504;2023-12-07T09:27:48;42.03;;;21.98;;
73938;SDS011;62291;47.554;8.504;2023-12-07T09:30:13;44.35;;;22.13;;
73938;SDS011;62291;47.554;8.504;2023-12-07T09:32:39;41.78;;;21.73;;
73938;SDS011;62291;47.554;8.504;2023-12-07T09:35:07;36.80;;;20.98;;
73938;SDS011;62291;47.554;8.504;2023-12-07T09:37:44;40.88;;;20.02;;
73938;SDS011;62291;47.554;8.504;2023-12-07T09:40:20;38.38;;;19.15;;
73938;SDS011;62291;47.554;8.504;2023-12-07T09:42:47;38.85;;;19.42;;
73938;SDS011;62291;47.554;8.504;2023-12-07T09:45:13;37.58;;;19.95;;
73938;SDS011;62291;47.554;8.504;2023-12-07T09:47:47;43.00;;;20.25;;
73938;SDS011;62291;47.554;8.504;2023-12-07T09:50:15;38.55;;;21.10;;
73938;SDS011;62291;47.554;8.504;2023-12-07T09:52:52;39.67;;;20.38;;
73938;SDS011;62291;47.554;8.504;2023-12-07T09:55:20;40.72;;;21.40;;
73938;SDS011;62291;47.554;8.504;2023-12-07T09:57:47;37.55;;;19.02;;
73938;SDS011;62291;47.554;8.504;2023-12-07T10:00:13;46.97;;;21.55;;
73938;SDS011;62291;47.554;8.504;2023-12-07T10:02:40;39.65;;;20.42;;
73938;SDS011;62291;47.554;8.504;2023-12-07T10:05:10;42.22;;;21.95;;
73938;SDS011;62291;47.554;8.504;2023-12-07T10:10:14;37.75;;;20.90;;
73938;SDS011;62291;47.554;8.504;2023-12-07T10:12:59;35.78;;;18.50;;
73938;SDS011;62291;47.554;8.504;2023-12-07T10:15:25;36.38;;;20.60;;
73938;SDS011;62291;47.554;8.504;2023-12-07T10:17:51;30.98;;;17.35;;
73938;SDS011;62291;47.554;8.504;2023-12-07T10:20:23;34.38;;;19.35;;
73938;SDS011;62291;47.554;8.504;2023-12-07T10:23:00;27.58;;;15.52;;
73938;SDS011;62291;47.554;8.504;2023-12-07T10:25:33;23.20;;;15.80;;
73938;SDS011;62291;47.554;8.504;2023-12-07T10:28:03;24.88;;;15.52;;
73938;SDS011;62291;47.554;8.504;2023-12-07T10:30:37;22.45;;;15.27;;
73938;SDS011;62291;47.554;8.504;2023-12-07T10:33:06;22.17;;;14.30;;
73938;SDS011;62291;47.554;8.504;2023-12-07T10:35:32;21.90;;;14.00;;
73938;SDS011;62291;47.554;8.504;2023-12-07T10:38:03;20.80;;;13.75;;
73938;SDS011;62291;47.554;8.504;2023-12-07T10:40:28;18.42;;;13.30;;
73938;SDS011;62291;47.554;8.504;2023-12-07T10:42:56;20.10;;;14.25;;
73938;SDS011;62291;47.554;8.504;2023-12-07T10:45:24;21.13;;;14.90;;
73938;SDS011;62291;47.554;8.504;2023-12-07T10:47:52;18.52;;;13.93;;
73938;SDS011;62291;47.554;8.504;2023-12-07T10:50:22;19.15;;;13.57;;
73938;SDS011;62291;47.554;8.504;2023-12-07T10:52:52;19.65;;;14.25;;
73938;SDS011;62291;47.554;8.504;2023-12-07T10:55:27;18.83;;;12.63;;
73938;SDS011;62291;47.554;8.504;2023-12-07T10:57:54;17.10;;;12.50;;
73938;SDS011;62291;47.554;8.504;2023-12-07T11:00:21;16.98;;;13.18;;
73938;SDS011;62291;47.554;8.504;2023-12-07T11:02:52;19.17;;;13.90;;
73938;SDS011;62291;47.554;8.504;2023-12-07T11:05:19;18.83;;;13.65;;
73938;SDS011;62291;47.554;8.504;2023-12-07T11:07:58;18.58;;;14.00;;
73938;SDS011;62291;47.554;8.504;2023-12-07T11:13:33;18.95;;;14.25;;
73938;SDS011;62291;47.554;8.504;2023-12-07T11:16:02;18.60;;;12.85;;
73938;SDS011;62291;47.554;8.504;2023-12-07T11:18:28;18.40;;;13.52;;
73938;SDS011;62291;47.554;8.504;2023-12-07T11:20:54;19.50;;;13.77;;
73938;SDS011;62291;47.554;8.504;2023-12-07T11:23:21;18.73;;;13.50;;
73938;SDS011;62291;47.554;8.504;2023-12-07T11:25:47;20.20;;;14.68;;
73938;SDS011;62291;47.554;8.504;2023-12-07T11:28:15;20.30;;;14.45;;
73938;SDS011;62291;47.554;8.504;2023-12-07T11:30:41;18.08;;;13.75;;
73938;SDS011;62291;47.554;8.504;2023-12-07T11:33:09;18.67;;;13.35;;
73938;SDS011;62291;47.554;8.504;2023-12-07T11:36:02;19.48;;;13.68;;
73938;SDS011;62291;47.554;8.504;2023-12-07T11:38:28;21.25;;;14.00;;
73938;SDS011;62291;47.554;8.504;2023-12-07T11:40:54;20.58;;;14.48;;
73938;SDS011;62291;47.554;8.504;2023-12-07T11:45:58;19.42;;;13.15;;
73938;SDS011;62291;47.554;8.504;2023-12-07T11:48:24;20.20;;;13.45;;
73938;SDS011;62291;47.554;8.504;2023-12-07T11:53:23;19.92;;;13.65;;
73938;SDS011;62291;47.554;8.504;2023-12-07T11:55:51;21.00;;;14.48;;
73938;SDS011;62291;47.554;8.504;2023-12-07T11:58:17;21.67;;;14.93;;
73938;SDS011;62291;47.554;8.504;2023-12-07T12:00:43;21.02;;;15.20;;
73938;SDS011;62291;47.554;8.504;2023-12-07T12:03:13;21.05;;;14.30;;
73938;SDS011;62291;47.554;8.504;2023-12-07T12:05:40;21.98;;;14.38;;
73938;SDS011;62291;47.554;8.504;2023-12-07T12:08:06;21.50;;;14.75;;
73938;SDS011;62291;47.554;8.504;2023-12-07T12:10:32;20.75;;;15.25;;
73938;SDS011;62291;47.554;8.504;2023-12-07T12:13:01;22.05;;;14.93;;
73938;SDS011;62291;47.554;8.504;2023-12-07T12:15:28;18.98;;;14.27;;
73938;SDS011;62291;47.554;8.504;2023-12-07T12:17:55;20.48;;;14.13;;
73938;SDS011;62291;47.554;8.504;2023-12-07T12:20:21;20.58;;;13.82;;
73938;SDS011;62291;47.554;8.504;2023-12-07T12:22:47;20.63;;;14.60;;
73938;SDS011;62291;47.554;8.504;2023-12-07T12:25:14;19.75;;;14.63;;
73938;SDS011;62291;47.554;8.504;2023-12-07T12:27:40;18.33;;;14.10;;
73938;SDS011;62291;47.554;8.504;2023-12-07T12:30:06;19.70;;;13.02;;
73938;SDS011;62291;47.554;8.504;2023-12-07T12:32:45;19.15;;;13.20;;
73938;SDS011;62291;47.554;8.504;2023-12-07T12:35:11;20.85;;;15.05;;
73938;SDS011;62291;47.554;8.504;2023-12-07T12:37:43;22.33;;;15.02;;
73938;SDS011;62291;47.554;8.504;2023-12-07T12:40:13;21.23;;;15.43;;
73938;SDS011;62291;47.554;8.504;2023-12-07T12:42:46;22.27;;;15.23;;
73938;SDS011;62291;47.554;8.504;2023-12-07T12:45:16;20.42;;;14.77;;
73938;SDS011;62291;47.554;8.504;2023-12-07T12:47:46;22.55;;;16.10;;
73938;SDS011;62291;47.554;8.504;2023-12-07T12:50:32;23.88;;;15.95;;
73938;SDS011;62291;47.554;8.504;2023-12-07T12:53:02;21.73;;;15.27;;
73938;SDS011;62291;47.554;8.504;2023-12-07T12:55:33;21.75;;;16.08;;
73938;SDS011;62291;47.554;8.504;2023-12-07T12:58:00;22.17;;;14.95;;
73938;SDS011;62291;47.554;8.504;2023-12-07T13:00:28;23.23;;;16.50;;
73938;SDS011;62291;47.554;8.504;2023-12-07T13:02:54;23.33;;;16.20;;
73938;SDS011;62291;47.554;8.504;2023-12-07T13:05:20;21.40;;;15.63;;
73938;SDS011;62291;47.554;8.504;2023-12-07T13:07:46;22.80;;;16.90;;
73938;SDS011;62291;47.554;8.504;2023-12-07T13:10:17;23.50;;;16.17;;
73938;SDS011;62291;47.554;8.504;2023-12-07T13:12:43;21.77;;;15.70;;
73938;SDS011;62291;47.554;8.504;2023-12-07T13:15:10;26.75;;;17.17;;
73938;SDS011;62291;47.554;8.504;2023-12-07T13:17:37;25.10;;;17.63;;
73938;SDS011;62291;47.554;8.504;2023-12-07T13:20:04;22.50;;;15.98;;
73938;SDS011;62291;47.554;8.504;2023-12-07T13:22:33;24.85;;;15.90;;
73938;SDS011;62291;47.554;8.504;2023-12-07T13:24:59;23.48;;;15.25;;
73938;SDS011;62291;47.554;8.504;2023-12-07T13:27:24;24.65;;;16.40;;
73938;SDS011;62291;47.554;8.504;2023-12-07T13:29:50;23.48;;;15.38;;
73938;SDS011;62291;47.554;8.504;2023-12-07T13:32:16;23.08;;;16.10;;
73938;SDS011;62291;47.554;8.504;2023-12-07T13:34:41;22.90;;;16.02;;
73938;SDS011;62291;47.554;8.504;2023-12-07T13:37:07;23.55;;;16.02;;
73938;SDS011;62291;47.554;8.504;2023-12-07T13:39:34;23.00;;;16.58;;
73938;SDS011;62291;47.554;8.504;2023-12-07T13:41:59;21.83;;;15.10;;
73938;SDS011;62291;47.554;8.504;2023-12-07T13:44:25;23.23;;;16.50;;
73938;SDS011;62291;47.554;8.504;2023-12-07T13:46:51;21.50;;;15.13;;
73938;SDS011;62291;47.554;8.504;2023-12-07T13:49:19;24.15;;;15.55;;
73938;SDS011;62291;47.554;8.504;2023-12-07T13:51:45;22.00;;;15.65;;
73938;SDS011;62291;47.554;8.504;2023-12-07T13:54:11;20.55;;;13.40;;
73938;SDS011;62291;47.554;8.504;2023-12-07T13:56:37;21.60;;;14.50;;
73938;SDS011;62291;47.554;8.504;2023-12-07T13:59:03;22.48;;;15.63;;
73938;SDS011;62291;47.554;8.504;2023-12-07T14:01:29;23.50;;;16.08;;
73938;SDS011;62291;47.554;8.504;2023-12-07T14:03:57;25.05;;;14.48;;
73938;SDS011;62291;47.554;8.504;2023-12-07T14:06:23;21.40;;;14.50;;
73938;SDS011;62291;47.554;8.504;2023-12-07T14:08:49;22.50;;;16.05;;
73938;SDS011;62291;47.554;8.504;2023-12-07T14:11:16;22.90;;;15.30;;
73938;SDS011;62291;47.554;8.504;2023-12-07T14:13:42;21.75;;;15.10;;
73938;SDS011;62291;47.554;8.504;2023-12-07T14:16:08;19.67;;;14.73;;
73938;SDS011;62291;47.554;8.504;2023-12-07T14:18:34;22.70;;;16.40;;
73938;SDS011;62291;47.554;8.504;2023-12-07T14:20:59;23.35;;;15.77;;
73938;SDS011;62291;47.554;8.504;2023-12-07T14:23:25;25.75;;;16.67;;
73938;SDS011;62291;47.554;8.504;2023-12-07T14:25:51;23.35;;;16.20;;
73938;SDS011;62291;47.554;8.504;2023-12-07T14:28:17;20.75;;;14.15;;
73938;SDS011;62291;47.554;8.504;2023-12-07T14:30:44;22.80;;;15.00;;